Etusivu
METAR-TAF:

METAR-TAF

Lentoasemat :

Caracas, Venezuela

Leveyspiiri: 10-36N, Pituuspiiri: 066-59W, korkeus merenpinnasta: 43 m

Tämänhetkinen sää

Tämä raportti tehtiin 21 minuuttia sitten, kello 19.03 UTC
Tuuli 8 kn idästä/koillisesta
Lämpötila 32°C
Kosteus 56%
Ilmanpaine 1012 hPa

METAR: SVMI 221903Z AUTO 06008KT NCD 32/22 Q1012

Aika: 15:24 (19:24 UTC)

Sääennuste

Tämä raportti tehtiin 2 tuntia ja 24 minuuttia sitten, kello 17.00 UTC
Ennuste voimassa 22. päivästä klo 18 UTC - 23. päivään klo 18 UTC
Tuuli 6 kn idästä/koillisesta
Näkyvyys 10 km tai enemmän
Hajanaisia pilviä 1600 ft:n korkeudessa
Ajoittain
22. päivästä klo 18 UTC - 22. päivään klo 22 UTC
Tuuli 8 kn idästä
Hajanaisia pilviä 1600 ft:n korkeudessa
Hajonneita pilviä 6000 ft:n korkeudessa

TAF: SVMI 221700Z 2218/2318 07006KT 9999 SCT016 TX34/2218Z TN22/2308Z TEMPO 2218/2222 09008KT SCT016 BKN060

Säähavainnot ja -ennusteet yli 4000 lentoasemalta (METAR- ja TAF-raportit).

Käytössä olevat sääasemat on merkitty karttaan keltaisilla ja punaisilla pisteillä.

Aseta hiiri pisteen päälle nähdäksesi sääaseman nimen.

Klikkaa sitten nähdäksesi säähavainnot ja -ennusteet.

Kartan vaihtaminen: klikkaa mustalla rastilla varustettuja vihreitä pisteitä, niin voit zoomata sisään; viivalla varustettua vihreää pistettä, niin voit zoomata ulos tai vihreitä nuolia, niin pääset viereisille kartoille.


METAR-TAF: